createdAt,value
2022-11-18T00:01:05.651Z,98698.56
2022-11-18T00:03:33.345Z,98702.31
2022-11-18T00:06:01.250Z,98696.91
2022-11-18T00:08:29.172Z,98692.34
2022-11-18T00:10:57.105Z,98690.72
2022-11-18T00:13:43.487Z,98678.03
2022-11-18T00:16:12.200Z,98680.19
2022-11-18T00:18:40.177Z,98683.44
2022-11-18T00:21:09.494Z,98681.00
2022-11-18T00:23:37.435Z,98692.59
2022-11-18T00:26:05.718Z,98682.91
2022-11-18T00:28:35.112Z,98683.94
2022-11-18T00:31:04.152Z,98688.28
2022-11-18T00:33:32.248Z,98686.63
2022-11-18T00:36:00.247Z,98678.56
2022-11-18T00:38:28.182Z,98681.25
2022-11-18T00:41:02.469Z,98678.81
2022-11-18T00:43:29.437Z,98674.25
2022-11-18T00:45:59.067Z,98668.84
2022-11-18T00:48:27.168Z,98671.53
2022-11-18T00:50:56.174Z,98665.59
2022-11-18T00:53:25.387Z,98669.88
2022-11-18T00:55:53.371Z,98672.59
2022-11-18T00:58:21.379Z,98667.47
2022-11-18T01:00:52.244Z,98671.22
2022-11-18T01:03:21.756Z,98665.59
2022-11-18T01:05:49.847Z,98661.00
2022-11-18T01:08:18.561Z,98659.13
2022-11-18T01:10:46.471Z,98659.13
2022-11-18T01:13:19.935Z,98654.78
2022-11-18T01:15:49.012Z,98661.81
2022-11-18T01:18:17.055Z,98667.19
2022-11-18T01:20:46.436Z,98669.88
2022-11-18T01:23:14.708Z,98668.03
2022-11-18T01:25:43.673Z,98668.28
2022-11-18T01:28:11.821Z,98665.59
2022-11-18T01:30:40.289Z,98671.78
2022-11-18T01:33:08.480Z,98662.88
2022-11-18T01:35:36.607Z,98659.13
2022-11-18T01:38:06.140Z,98657.50
2022-11-18T01:40:34.301Z,98654.78
2022-11-18T01:43:02.263Z,98647.78
2022-11-18T01:45:33.036Z,98646.72
2022-11-18T01:48:04.137Z,98641.31
2022-11-18T01:50:32.047Z,98637.81
2022-11-18T01:53:02.894Z,98645.09
2022-11-18T01:55:34.332Z,98634.31
2022-11-18T01:58:04.975Z,98638.63
2022-11-18T02:00:32.937Z,98642.41
2022-11-18T02:03:01.528Z,98631.63
2022-11-18T02:05:29.448Z,98624.59
2022-11-18T02:07:57.760Z,98620.00
2022-11-18T02:10:26.141Z,98619.19
2022-11-18T02:12:55.948Z,98613.81
2022-11-18T02:15:27.686Z,98613.81
2022-11-18T02:17:58.962Z,98601.41
2022-11-18T02:20:31.962Z,98602.22
2022-11-18T02:23:22.986Z,98606.78
2022-11-18T02:26:00.801Z,98603.03
2022-11-18T02:28:37.132Z,98600.59
2022-11-18T02:31:08.507Z,98593.56
2022-11-18T02:33:39.657Z,98592.75
2022-11-18T02:36:10.946Z,98593.84
2022-11-18T02:38:41.150Z,98600.28
2022-11-18T02:41:10.638Z,98608.34
2022-11-18T02:43:41.113Z,98596.53
2022-11-18T02:46:11.301Z,98597.56
2022-11-18T02:48:40.543Z,98595.34
2022-11-18T02:51:09.488Z,98587.53
2022-11-18T02:53:37.633Z,98580.00
2022-11-18T02:56:05.890Z,98577.56
2022-11-18T02:58:33.783Z,98573.78
2022-11-18T03:01:02.300Z,98573.78
2022-11-18T03:03:32.441Z,98566.78
2022-11-18T03:06:09.777Z,98565.97
2022-11-18T03:08:39.759Z,98565.16
2022-11-18T03:11:12.163Z,98561.66
2022-11-18T03:13:43.069Z,98566.47
2022-11-18T03:16:12.555Z,98562.72
2022-11-18T03:18:43.993Z,98562.72
2022-11-18T03:21:13.351Z,98555.44
2022-11-18T03:23:42.486Z,98546.78
2022-11-18T03:26:12.565Z,98542.47
2022-11-18T03:28:41.818Z,98546.78
2022-11-18T03:31:11.112Z,98538.47
2022-11-18T03:33:42.115Z,98529.56
2022-11-18T03:36:11.093Z,98531.19
2022-11-18T03:38:40.990Z,98533.88
2022-11-18T03:41:09.967Z,98535.50
2022-11-18T03:43:39.565Z,98536.34
2022-11-18T03:46:08.521Z,98535.50
2022-11-18T03:48:38.750Z,98543.59
2022-11-18T03:51:09.332Z,98545.22
2022-11-18T03:53:39.367Z,98547.94
2022-11-18T03:56:17.530Z,98544.44
2022-11-18T03:58:49.038Z,98541.97
2022-11-18T04:01:18.336Z,98547.13
2022-11-18T04:03:46.370Z,98546.28
2022-11-18T04:06:18.041Z,98538.19
2022-11-18T04:08:46.043Z,98535.50
2022-11-18T04:11:36.135Z,98538.19
2022-11-18T04:14:04.376Z,98541.72
2022-11-18T04:16:32.304Z,98530.13
2022-11-18T04:19:05.936Z,98531.19
2022-11-18T04:21:35.726Z,98527.41
2022-11-18T04:24:03.694Z,98522.03
2022-11-18T04:26:32.476Z,98515.03
2022-11-18T04:29:00.791Z,98525.81
2022-11-18T04:31:28.730Z,98521.22
2022-11-18T04:33:56.624Z,98517.72
2022-11-18T04:36:24.592Z,98510.72
2022-11-18T04:38:53.928Z,98515.03
2022-11-18T04:41:41.826Z,98518.81
2022-11-18T04:44:13.441Z,98510.72
2022-11-18T04:46:42.839Z,98519.59
2022-11-18T04:49:10.808Z,98518.81
2022-11-18T04:51:38.693Z,98522.53
2022-11-18T04:54:08.109Z,98519.84
2022-11-18T04:56:36.005Z,98530.63
2022-11-18T04:59:03.922Z,98535.22
2022-11-18T05:01:31.872Z,98535.44
2022-11-18T05:04:01.380Z,98531.72
2022-11-18T05:06:29.395Z,98531.94
2022-11-18T05:08:58.892Z,98531.94
2022-11-18T05:11:45.646Z,98523.06
2022-11-18T05:14:13.976Z,98525.19
2022-11-18T05:16:41.920Z,98518.19
2022-11-18T05:19:10.103Z,98517.09
2022-11-18T05:21:38.038Z,98514.41
2022-11-18T05:24:06.593Z,98513.84
2022-11-18T05:26:35.883Z,98503.06
2022-11-18T05:29:03.827Z,98510.34
2022-11-18T05:31:31.768Z,98498.50
2022-11-18T05:33:59.895Z,98500.38
2022-11-18T05:36:27.808Z,98504.13
2022-11-18T05:38:55.683Z,98509.53
2022-11-18T05:41:41.081Z,98508.44
2022-11-18T05:44:11.718Z,98501.44
2022-11-18T05:46:40.439Z,98516.53
2022-11-18T05:49:09.892Z,98505.75
2022-11-18T05:51:37.803Z,98494.97
2022-11-18T05:54:06.528Z,98507.41
2022-11-18T05:56:37.933Z,98499.31
2022-11-18T05:59:07.339Z,98492.84
2022-11-18T06:01:38.060Z,98485.03
2022-11-18T06:04:09.177Z,98482.06
2022-11-18T06:06:37.081Z,98487.47
2022-11-18T06:09:06.153Z,98480.47
2022-11-18T06:11:34.799Z,98490.16
2022-11-18T06:14:03.982Z,98487.47
2022-11-18T06:16:35.299Z,98471.06
2022-11-18T06:19:07.294Z,98481.03
2022-11-18T06:21:35.250Z,98477.25
2022-11-18T06:24:03.536Z,98468.38
2022-11-18T06:26:31.514Z,98461.09
2022-11-18T06:28:59.421Z,98461.09
2022-11-18T06:31:27.332Z,98453.00
2022-11-18T06:33:55.255Z,98449.22
2022-11-18T06:36:24.565Z,98441.41
2022-11-18T06:38:52.432Z,98444.13
2022-11-18T06:41:20.381Z,98445.44
2022-11-18T06:43:49.069Z,98429.00
2022-11-18T06:46:46.687Z,98423.59
2022-11-18T06:49:14.799Z,98416.59
2022-11-18T06:51:44.385Z,98417.41
2022-11-18T06:54:15.291Z,98414.47
2022-11-18T06:56:43.192Z,98418.22
2022-11-18T06:59:11.103Z,98419.88
2022-11-18T07:01:39.799Z,98418.78
2022-11-18T07:04:07.710Z,98428.19
2022-11-18T07:06:35.993Z,98433.56
2022-11-18T07:09:06.324Z,98430.88
2022-11-18T07:11:34.226Z,98437.09
2022-11-18T07:14:02.530Z,98433.34
2022-11-18T07:16:30.500Z,98431.69
2022-11-18T07:18:58.400Z,98438.16
2022-11-18T07:21:29.411Z,98439.53
2022-11-18T07:23:57.633Z,98448.94
2022-11-18T07:26:26.950Z,98443.03
2022-11-18T07:28:55.333Z,98449.75
2022-11-18T07:31:23.339Z,98457.59
2022-11-18T07:33:53.608Z,98455.13
2022-11-18T07:36:23.470Z,98447.06
2022-11-18T07:38:51.422Z,98436.84
2022-11-18T07:41:20.147Z,98444.34
2022-11-18T07:43:50.444Z,98439.28
2022-11-18T07:46:19.484Z,98444.69
2022-11-18T07:48:48.402Z,98434.72
2022-11-18T07:51:18.490Z,98426.63
2022-11-18T07:53:46.708Z,98423.94
2022-11-18T07:56:14.947Z,98428.22
2022-11-18T07:58:43.022Z,98430.13
2022-11-18T08:01:13.330Z,98434.44
2022-11-18T08:03:41.295Z,98429.31
2022-11-18T08:06:10.116Z,98433.63
2022-11-18T08:08:40.436Z,98428.22
2022-11-18T08:11:11.316Z,98423.66
2022-11-18T08:13:39.218Z,98404.00
2022-11-18T08:16:14.053Z,98391.59
2022-11-18T08:18:42.023Z,98382.44
2022-11-18T08:21:09.974Z,98385.41
2022-11-18T08:23:41.936Z,98381.88
2022-11-18T08:26:11.803Z,98381.06
2022-11-18T08:28:39.877Z,98388.34
2022-11-18T08:31:11.764Z,98393.16
2022-11-18T08:33:41.096Z,98396.41
2022-11-18T08:36:10.061Z,98400.44
2022-11-18T08:38:37.994Z,98402.31
2022-11-18T08:41:07.358Z,98406.06
2022-11-18T08:43:36.413Z,98410.41
2022-11-18T08:46:04.777Z,98412.31
2022-11-18T08:48:32.732Z,98415.78
2022-11-18T08:51:02.191Z,98415.53
2022-11-18T08:53:30.358Z,98417.16
2022-11-18T08:55:58.785Z,98427.38
2022-11-18T08:58:26.862Z,98418.22
2022-11-18T09:00:54.852Z,98428.75
2022-11-18T09:03:22.830Z,98432.25
2022-11-18T09:05:50.889Z,98431.44
2022-11-18T09:08:21.990Z,98431.44
2022-11-18T09:10:49.883Z,98424.44
2022-11-18T09:13:47.513Z,98420.66
2022-11-18T09:16:06.168Z,98420.66
2022-11-18T09:18:34.100Z,98417.41
2022-11-18T09:21:02.897Z,98427.13
2022-11-18T09:23:32.211Z,98428.75
2022-11-18T09:26:00.487Z,98433.34
2022-11-18T09:28:28.380Z,98426.06
2022-11-18T09:30:56.885Z,98427.69
2022-11-18T09:33:25.079Z,98416.09
2022-11-18T09:35:53.094Z,98423.94
2022-11-18T09:38:21.464Z,98423.94
2022-11-18T09:40:56.426Z,98403.44
2022-11-18T09:43:27.437Z,98393.22
2022-11-18T09:45:56.786Z,98379.19
2022-11-18T09:48:47.291Z,98373.78
2022-11-18T09:51:15.686Z,98368.41
2022-11-18T09:53:44.284Z,98364.91
2022-11-18T09:56:16.579Z,98357.63
2022-11-18T09:58:44.679Z,98352.78
2022-11-18T10:01:14.793Z,98337.72
2022-11-18T10:03:42.808Z,98353.06
2022-11-18T10:06:23.414Z,98337.72
2022-11-18T10:09:09.916Z,98329.63
2022-11-18T10:11:45.169Z,98331.50
2022-11-18T10:14:21.016Z,98315.59
2022-11-18T10:16:57.717Z,98315.34
2022-11-18T10:19:29.339Z,98299.19
2022-11-18T10:22:06.284Z,98296.22
2022-11-18T10:24:40.250Z,98291.34
2022-11-18T10:27:12.963Z,98271.41
2022-11-18T10:29:40.942Z,98269.78
2022-11-18T10:32:10.347Z,98266.00
2022-11-18T10:34:48.134Z,98255.25
2022-11-18T10:37:38.697Z,98238.25
2022-11-18T10:40:25.246Z,98236.66
2022-11-18T10:42:55.122Z,98232.06
2022-11-18T10:45:26.283Z,98221.28
2022-11-18T10:48:09.200Z,98207.56
2022-11-18T10:50:37.626Z,98202.44
2022-11-18T10:53:06.416Z,98195.69
2022-11-18T10:55:36.977Z,98204.31
2022-11-18T10:58:10.957Z,98207.81
2022-11-18T11:00:44.110Z,98207.28
2022-11-18T11:03:31.383Z,98212.41
2022-11-18T11:06:30.729Z,98201.06
2022-11-18T11:09:00.599Z,98204.03
2022-11-18T11:11:30.036Z,98202.16
2022-11-18T11:14:14.385Z,98200.28
2022-11-18T11:16:45.456Z,98190.31
2022-11-18T11:19:14.979Z,98194.88
2022-11-18T11:21:43.004Z,98198.63
2022-11-18T11:24:14.083Z,98207.78
2022-11-18T11:29:57.503Z,98189.50
2022-11-18T11:32:29.949Z,98182.47
2022-11-18T11:35:00.155Z,98183.03
2022-11-18T11:37:30.879Z,98177.91
2022-11-18T11:40:04.177Z,98168.75
2022-11-18T11:42:37.643Z,98164.16
2022-11-18T11:45:16.644Z,98164.97
2022-11-18T11:47:50.490Z,98156.88
2022-11-18T11:50:25.157Z,98138.03
2022-11-18T11:53:03.794Z,98137.22
2022-11-18T11:55:48.133Z,98137.78
2022-11-18T11:58:22.202Z,98127.25
2022-11-18T12:00:56.213Z,98123.50
2022-11-18T12:03:38.667Z,98118.91
2022-11-18T12:06:08.790Z,98123.22
2022-11-18T12:08:38.670Z,98122.16
2022-11-18T12:11:08.474Z,98114.09
2022-11-18T12:13:39.577Z,98113.00
2022-11-18T12:16:16.602Z,98098.47
2022-11-18T12:18:48.950Z,98094.69
2022-11-18T12:21:53.962Z,98076.38
2022-11-18T12:24:32.840Z,98081.50
2022-11-18T12:27:01.679Z,98076.94
2022-11-18T12:29:41.922Z,98070.50
2022-11-18T12:32:43.864Z,98065.09
2022-11-18T12:35:24.548Z,98055.94
2022-11-18T12:38:01.714Z,98045.16
2022-11-18T12:40:37.479Z,98041.41
2022-11-18T12:43:23.668Z,98036.00
2022-11-18T12:45:53.797Z,98034.69
2022-11-18T12:48:47.202Z,98032.78
2022-11-18T12:51:47.871Z,98029.81
2022-11-18T12:54:25.408Z,98022.56
2022-11-18T12:56:53.606Z,98005.03
2022-11-18T12:59:29.052Z,98010.16
2022-11-18T13:02:21.217Z,98001.53
2022-11-18T13:08:05.041Z,98002.34
2022-11-18T13:10:34.420Z,98007.75
2022-11-18T13:13:02.839Z,97996.13
2022-11-18T13:15:56.523Z,97999.38
2022-11-18T13:18:24.921Z,98000.19
2022-11-18T13:20:56.531Z,97988.06
2022-11-18T13:23:50.011Z,97979.41
2022-11-18T13:26:20.808Z,97967.59
2022-11-18T13:29:00.531Z,97964.88
2022-11-18T13:31:32.997Z,97955.97
2022-11-18T13:34:02.746Z,97964.91
2022-11-18T13:36:32.482Z,97958.94
2022-11-18T13:39:04.008Z,97955.16
2022-11-18T13:41:36.039Z,97956.25
2022-11-18T13:44:17.100Z,97951.94
2022-11-18T13:46:45.122Z,97941.13
2022-11-18T13:49:14.399Z,97935.22
2022-11-18T13:51:42.350Z,97945.47
2022-11-18T13:54:14.088Z,97932.25
2022-11-18T13:56:42.031Z,97931.44
2022-11-18T13:59:17.847Z,97931.44
2022-11-18T14:01:46.439Z,97926.06
2022-11-18T14:04:19.723Z,97927.13
2022-11-18T14:06:48.343Z,97926.84
2022-11-18T14:09:24.552Z,97933.03
2022-11-18T14:12:02.568Z,97926.84
2022-11-18T14:14:32.929Z,97927.13
2022-11-18T14:17:17.772Z,97916.34
2022-11-18T14:19:46.042Z,97916.34
2022-11-18T14:22:15.384Z,97903.69
2022-11-18T14:24:45.820Z,97905.56
2022-11-18T14:27:38.804Z,97895.84
2022-11-18T14:30:29.581Z,97895.84
2022-11-18T14:33:27.715Z,97878.88
2022-11-18T14:35:57.960Z,97872.69
2022-11-18T14:38:47.716Z,97895.84
2022-11-18T14:41:44.654Z,97907.72
2022-11-18T14:44:15.374Z,97997.50
2022-11-18T14:46:45.047Z,98017.19
2022-11-18T14:49:15.933Z,98003.69
2022-11-18T14:51:44.213Z,98046.84
2022-11-18T14:54:17.214Z,98059.50
2022-11-18T14:56:51.217Z,98044.13
2022-11-18T14:59:20.822Z,98096.47
2022-11-18T15:01:48.930Z,98136.09
2022-11-18T15:04:18.665Z,98134.47
2022-11-18T15:06:47.489Z,98150.38
2022-11-18T15:09:17.263Z,98167.38
2022-11-18T15:11:45.467Z,98172.75
2022-11-18T15:14:14.711Z,98190.84
2022-11-18T15:16:43.314Z,98175.72
2022-11-18T15:19:13.490Z,98185.69
2022-11-18T15:21:42.108Z,98175.72
2022-11-18T15:24:10.035Z,98166.00
2022-11-18T15:26:40.739Z,98174.91
2022-11-18T15:29:10.039Z,98184.88
2022-11-18T15:31:40.102Z,98202.97
2022-11-18T15:34:08.787Z,98209.97
2022-11-18T15:36:37.511Z,98216.16
2022-11-18T15:39:05.511Z,98243.97
2022-11-18T15:41:34.462Z,98266.34
2022-11-18T15:44:03.352Z,98258.50
2022-11-18T15:46:33.923Z,98260.38
2022-11-18T15:49:03.223Z,98240.97
2022-11-18T15:51:32.069Z,98236.94
2022-11-18T15:54:00.017Z,98219.38
2022-11-18T15:56:29.637Z,98204.84
2022-11-18T15:58:58.276Z,98233.66
2022-11-18T16:01:27.134Z,98210.25
2022-11-18T16:03:55.118Z,98197.81
2022-11-18T16:06:26.404Z,98215.09
2022-11-18T16:08:59.232Z,98198.91
2022-11-18T16:11:45.446Z,98219.38
2022-11-18T16:14:13.803Z,98239.06
2022-11-18T16:16:44.008Z,98250.69
2022-11-18T16:19:12.576Z,98258.78
2022-11-18T16:21:47.114Z,98267.66
2022-11-18T16:24:16.175Z,98284.66
2022-11-18T16:26:45.283Z,98284.66
2022-11-18T16:29:15.163Z,98291.13
2022-11-18T16:31:42.850Z,98298.13
2022-11-18T16:34:11.892Z,98317.00
2022-11-18T16:36:44.501Z,98332.38
2022-11-18T16:39:13.382Z,98336.69
2022-11-18T16:41:42.174Z,98329.69
2022-11-18T16:44:10.717Z,98333.19
2022-11-18T16:46:40.563Z,98334.78
2022-11-18T16:49:08.711Z,98335.88
2022-11-18T16:51:37.414Z,98338.56
2022-11-18T16:54:08.109Z,98338.56
2022-11-18T16:56:37.563Z,98356.38
2022-11-18T16:59:07.603Z,98369.84
2022-11-18T17:01:35.597Z,98361.75
2022-11-18T17:04:04.314Z,98374.19
2022-11-18T17:06:33.800Z,98384.97
2022-11-18T17:09:02.543Z,98384.16
2022-11-18T17:11:31.829Z,98384.16
2022-11-18T17:14:00.475Z,98379.59
2022-11-18T17:16:28.382Z,98384.97
2022-11-18T17:18:57.424Z,98378.78
2022-11-18T17:21:25.476Z,98377.69
2022-11-18T17:23:54.171Z,98379.59
2022-11-18T17:26:23.528Z,98390.38
2022-11-18T17:28:54.523Z,98376.88
2022-11-18T17:31:23.121Z,98382.28
2022-11-18T17:33:52.906Z,98378.50
2022-11-18T17:36:21.794Z,98378.50
2022-11-18T17:38:51.252Z,98387.69
2022-11-18T17:41:33.893Z,98385.78
2022-11-18T17:44:04.468Z,98393.31
2022-11-18T17:46:37.791Z,98404.91
2022-11-18T17:49:07.777Z,98393.31
2022-11-18T17:51:35.633Z,98392.50
2022-11-18T17:54:04.377Z,98403.28
2022-11-18T17:56:32.305Z,98412.47
2022-11-18T17:59:01.012Z,98425.66
2022-11-18T18:01:30.470Z,98432.94
2022-11-18T18:03:59.561Z,98432.16
2022-11-18T18:06:29.657Z,98437.53
2022-11-18T18:08:59.044Z,98433.75
2022-11-18T18:11:27.195Z,98437.53
2022-11-18T18:14:13.811Z,98432.38
2022-11-18T18:16:44.676Z,98443.19
2022-11-18T18:19:15.621Z,98457.47
2022-11-18T18:21:43.608Z,98445.88
2022-11-18T18:24:12.542Z,98450.47
2022-11-18T18:26:40.476Z,98443.19
2022-11-18T18:29:09.103Z,98451.28
2022-11-18T18:31:40.221Z,98452.91
2022-11-18T18:34:11.573Z,98445.88
2022-11-18T18:36:39.583Z,98437.78
2022-11-18T18:39:08.229Z,98438.59
2022-11-18T18:41:36.405Z,98443.19
2022-11-18T18:44:05.118Z,98448.84
2022-11-18T18:46:32.468Z,98459.34
2022-11-18T18:49:03.626Z,98452.34
2022-11-18T18:51:33.867Z,98464.75
2022-11-18T18:54:02.635Z,98463.69
2022-11-18T18:56:30.617Z,98465.31
2022-11-18T18:58:59.503Z,98470.69
2022-11-18T19:01:27.672Z,98468.00
2022-11-18T19:03:57.235Z,98484.75
2022-11-18T19:09:21.725Z,98476.66
2022-11-18T19:12:07.071Z,98484.47
2022-11-18T19:14:36.626Z,98489.06
2022-11-18T19:17:10.095Z,98490.44
2022-11-18T19:19:57.478Z,98497.72
2022-11-18T19:22:25.425Z,98501.22
2022-11-18T19:24:55.876Z,98504.72
2022-11-18T19:27:25.471Z,98507.41
2022-11-18T19:29:54.340Z,98515.25
2022-11-18T19:32:22.396Z,98524.16
2022-11-18T19:34:51.602Z,98514.44
2022-11-18T19:37:19.537Z,98524.16
2022-11-18T19:39:48.102Z,98523.34
2022-11-18T19:42:17.326Z,98525.78
2022-11-18T19:44:46.703Z,98530.38
2022-11-18T19:47:14.662Z,98547.34
2022-11-18T19:49:43.731Z,98554.38
2022-11-18T19:52:11.641Z,98549.00
2022-11-18T19:54:41.763Z,98566.22
2022-11-18T19:57:09.699Z,98574.31
2022-11-18T19:59:40.301Z,98578.09
2022-11-18T20:02:08.389Z,98573.50
2022-11-18T20:04:37.102Z,98583.50
2022-11-18T20:07:05.879Z,98593.19
2022-11-18T20:09:34.564Z,98602.38
2022-11-18T20:12:02.460Z,98615.84
2022-11-18T20:14:31.074Z,98617.75
2022-11-18T20:17:00.362Z,98635.81
2022-11-18T20:19:29.566Z,98635.81
2022-11-18T20:21:57.492Z,98633.13
2022-11-18T20:24:26.070Z,98638.50
2022-11-18T20:26:53.995Z,98654.69
2022-11-18T20:29:22.714Z,98668.97
2022-11-18T20:31:50.770Z,98672.75
2022-11-18T20:34:20.059Z,98684.34
2022-11-18T20:36:52.752Z,98687.06
2022-11-18T20:39:20.950Z,98688.09
2022-11-18T20:42:13.835Z,98698.88
2022-11-18T20:44:42.435Z,98688.09
2022-11-18T20:47:10.331Z,98701.59
2022-11-18T20:49:40.402Z,98703.47
2022-11-18T20:52:08.252Z,98692.69
2022-11-18T20:54:37.776Z,98698.09
2022-11-18T20:57:06.160Z,98694.56
2022-11-18T20:59:34.082Z,98697.28
2022-11-18T21:02:02.800Z,98691.88
2022-11-18T21:04:30.849Z,98702.66
2022-11-18T21:07:02.465Z,98708.06
2022-11-18T21:09:33.569Z,98703.75
2022-11-18T21:12:02.338Z,98708.88
2022-11-18T21:14:29.255Z,98709.69
2022-11-18T21:17:01.079Z,98719.94
2022-11-18T21:19:29.138Z,98730.44
2022-11-18T21:21:56.884Z,98731.25
2022-11-18T21:24:28.783Z,98741.00
2022-11-18T21:26:58.037Z,98736.41
2022-11-18T21:29:26.943Z,98746.94
2022-11-18T21:31:56.146Z,98753.16
2022-11-18T21:34:24.425Z,98757.72
2022-11-18T21:36:54.888Z,98753.97
2022-11-18T21:39:23.552Z,98775.56
2022-11-18T21:41:56.663Z,98766.38
2022-11-18T21:44:25.549Z,98772.84
2022-11-18T21:46:54.324Z,98766.38
2022-11-18T21:49:22.890Z,98776.34
2022-11-18T21:51:51.754Z,98787.94
2022-11-18T21:54:19.729Z,98801.44
2022-11-18T21:56:50.749Z,98804.13
2022-11-18T21:59:20.819Z,98804.13
2022-11-18T22:01:49.657Z,98809.28
2022-11-18T22:04:31.388Z,98813.03
2022-11-18T22:07:01.024Z,98822.22
2022-11-18T22:09:34.632Z,98829.50
2022-11-18T22:12:04.962Z,98833.00
2022-11-18T22:14:34.214Z,98836.78
2022-11-18T22:17:02.908Z,98841.09
2022-11-18T22:19:30.913Z,98844.03
2022-11-18T22:21:59.591Z,98853.19
2022-11-18T22:24:27.572Z,98862.38
2022-11-18T22:26:56.184Z,98873.16
2022-11-18T22:29:26.048Z,98881.25
2022-11-18T22:31:56.093Z,98883.13
2022-11-18T22:34:24.090Z,98886.06
2022-11-18T22:36:52.736Z,98904.72
2022-11-18T22:39:21.165Z,98907.63
2022-11-18T22:42:18.748Z,98910.34
2022-11-18T22:44:46.615Z,98911.41
2022-11-18T22:47:16.582Z,98916.81
2022-11-18T22:50:51.768Z,98911.41
2022-11-18T22:53:20.406Z,98909.75
2022-11-18T22:55:48.311Z,98918.94
2022-11-18T22:58:16.883Z,98918.94
2022-11-18T23:00:45.388Z,98914.59
2022-11-18T23:03:15.317Z,98928.06
2022-11-18T23:05:47.425Z,98926.44
2022-11-18T23:08:15.885Z,98937.22
2022-11-18T23:10:44.129Z,98948.00
2022-11-18T23:13:29.446Z,98959.63
2022-11-18T23:15:58.881Z,98960.69
2022-11-18T23:18:28.762Z,98962.56
2022-11-18T23:20:59.964Z,98966.09
2022-11-18T23:23:27.934Z,98969.59
2022-11-18T23:25:55.976Z,98973.38
2022-11-18T23:28:24.110Z,98972.53
2022-11-18T23:30:52.095Z,98989.53
2022-11-18T23:33:19.983Z,99001.38
2022-11-18T23:35:54.482Z,98993.28
2022-11-18T23:38:22.453Z,99001.38
2022-11-18T23:40:55.478Z,99001.38
2022-11-18T23:43:23.559Z,99003.03
2022-11-18T23:45:51.632Z,99020.03
2022-11-18T23:48:19.652Z,99030.53
2022-11-18T23:50:55.817Z,99030.53
2022-11-18T23:53:23.786Z,99036.78
2022-11-18T23:55:51.754Z,99059.16
2022-11-18T23:58:19.800Z,99065.38
